Data for 07/25/2015

Time Sea-Level Adjusted Pressure Absolute Pressure Temperature Relative Humidity Dew Point   
(mb) (inHg) (mb) (inHg) (C) (F) (%) (C) (F)
00:05 1020 30.12 849 25.07 18.1 64.6 41 4.8 40.6
00:10 1020 30.12 849 25.07 17.9 64.3 42 4.9 40.7
00:15 1020 30.12 850 25.1 17.8 64 43 5.1 41.2
00:20 1020 30.12 850 25.1 17.6 63.7 43 4.9 40.8
00:25 1020 30.12 850 25.1 17.6 63.7 43 5 41
00:30 1020 30.12 850 25.1 17.7 63.9 42 4.8 40.6
00:35 1020 30.12 850 25.1 17.6 63.6 45 5.6 42.1
00:40 1020 30.12 850 25.1 17 62.7 47 5.7 42.2
00:45 1020 30.12 850 25.1 17 62.7 45 5 41
00:50 1020 30.12 850 25.1 17.1 62.7 45 5.2 41.3
00:55 1020 30.12 850 25.1 17.1 62.8 44 4.8 40.6
01:00 1020 30.12 850 25.1 17.2 62.9 44 4.9 40.8
01:05 1020 30.12 850 25.1 17.1 62.8 44 5 41
01:10 1020 30.12 850 25.1 17 62.6 45 5.2 41.3
01:15 1020 30.12 850 25.1 17 62.6 44 4.9 40.8
01:20 1020 30.12 850 25.1 17 62.6 45 5.2 41.4
01:25 1020 30.12 850 25.1 16.9 62.4 46 5.4 41.7
01:30 1020 30.12 850 25.1 16.8 62.2 46 5.2 41.3
01:35 1020 30.12 850 25.1 16.8 62.2 47 5.3 41.6
01:40 1020 30.12 850 25.1 16.7 62.1 48 5.8 42.4
01:45 1020 30.12 850 25.1 16.3 61.4 49 5.7 42.3
01:50 1020 30.12 850 25.1 16.2 61.1 49 5.6 42
01:55 1020 30.12 850 25.1 16.2 61.1 49 5.5 41.8
02:00 1020 30.12 850 25.1 16.1 61.1 50 5.7 42.2
02:05 1020 30.12 850 25.1 15.9 60.6 50 5.7 42.2
02:10 1020 30.12 850 25.1 15.7 60.3 53 6.2 43.2
02:15 1020 30.12 850 25.1 15.4 59.8 52 5.9 42.5
02:20 1020 30.12 850 25.1 15.5 59.9 50 5.1 41.1
02:25 1020 30.12 850 25.1 16 60.8 48 5.1 41.2
02:30 1020 30.12 850 25.1 16 60.8 49 5.4 41.8
02:35 1020 30.12 850 25.1 15.9 60.7 49 5.4 41.7
02:40 1020 30.12 850 25.1 15.7 60.2 51 5.6 42.1
02:45 1020 30.12 850 25.1 15.4 59.8 53 5.9 42.6
02:50 1020 30.12 850 25.1 15 59 55 6.2 43.2
02:55 1020 30.12 850 25.1 14.6 58.2 55 5.7 42.2
03:00 1020 30.12 850 25.1 14.8 58.7 54 5.6 42
03:05 1020 30.12 850 25.1 14.8 58.6 54 5.6 42.1
03:10 1020 30.12 850 25.1 14.8 58.7 54 5.6 42.1
03:15 1020 30.12 850 25.1 14.9 58.8 54 5.8 42.4
03:20 1020 30.12 850 25.1 14.8 58.6 55 5.8 42.4
03:25 1021 30.15 850 25.1 14.6 58.3 55 5.8 42.4
03:30 1021 30.15 850 25.1 14.5 58.1 56 5.8 42.5
03:35 1020 30.12 850 25.1 14.5 58.1 55 5.5 42
03:40 1020 30.12 850 25.1 14.7 58.4 55 5.9 42.5
03:45 1021 30.15 850 25.1 14.5 58.2 55 5.8 42.4
03:50 1020 30.12 850 25.1 14.5 58 56 6 42.7
03:55 1021 30.15 850 25.1 14.1 57.4 58 6 42.9
04:00 1021 30.15 850 25.1 13.9 57 59 6 42.8
04:05 1021 30.15 850 25.1 13.7 56.6 59 5.8 42.4
04:10 1021 30.15 850 25.1 13.8 56.8 58 5.7 42.3
04:15 1021 30.15 850 25.1 13.8 56.8 59 6 42.8
04:20 1021 30.15 850 25.1 13.6 56.6 60 6.2 43.1
04:25 1021 30.15 850 25.1 13.4 56.1 61 6 42.9
04:30 1021 30.15 850 25.1 13.4 56.1 61 6 42.9
04:35 1021 30.15 850 25.1 13.4 56.1 61 6.1 43
04:40 1021 30.15 850 25.1 13.2 55.8 61 6 42.8
04:45 1021 30.15 850 25.1 13.2 55.7 62 6.1 42.9
04:50 1021 30.15 850 25.1 13.3 55.9 61 6 42.8
04:55 1021 30.15 850 25.1 13.5 56.2 59 5.7 42.2
05:00 1021 30.15 850 25.1 13.7 56.6 60 6.1 43
05:05 1021 30.15 850 25.1 13.6 56.4 60 6 42.7
05:10 1021 30.15 850 25.1 13.5 56.3 60 6 42.8
05:15 1021 30.15 850 25.1 13.4 56.2 60 6 42.8
05:20 1021 30.15 850 25.1 13.5 56.2 61 6 42.8
05:25 1021 30.15 850 25.1 13.4 56 61 6 42.9
05:30 1021 30.15 850 25.1 13.3 55.9 61 6 42.9
05:35 1021 30.15 850 25.1 13.4 56 60 5.9 42.6
05:40 1021 30.15 850 25.1 13.6 56.5 59 5.8 42.4
05:45 1021 30.15 850 25.1 13.8 56.9 59 6.1 43
05:50 1021 30.15 850 25.1 13.7 56.6 59 5.9 42.7
05:55 1021 30.15 850 25.1 14 57.2 57 5.7 42.2
06:00 1021 30.15 850 25.1 14.4 57.8 57 6 42.7
06:05 1021 30.15 850 25.1 14.3 57.7 57 6.1 42.9
06:10 1021 30.15 850 25.1 14.5 58 56 5.9 42.6
06:15 1021 30.15 850 25.1 14.7 58.5 55 5.8 42.4
06:20 1021 30.15 850 25.1 15 59 55 6 42.8
06:25 1021 30.15 850 25.1 15.1 59.2 55 6.2 43.1
06:30 1021 30.15 850 25.1 15.2 59.4 55 6.3 43.3
06:35 1021 30.15 850 25.1 15.4 59.7 54 6.3 43.3
06:40 1021 30.15 850 25.1 15.5 59.8 55 6.5 43.8
06:45 1021 30.15 850 25.1 15.6 60 55 6.7 44
06:50 1021 30.15 850 25.1 15.8 60.4 54 6.6 44
06:55 1021 30.15 850 25.1 16 60.9 52 6.3 43.4
07:00 1021 30.15 850 25.1 16.4 61.6 52 6.7 44.1
07:05 1021 30.15 850 25.1 16.7 62.1 55 7.9 46.1
07:10 1021 30.15 850 25.1 17.1 62.8 50 6.8 44.2
07:15 1021 30.15 850 25.1 17.1 62.8 51 6.9 44.5
07:20 1021 30.15 851 25.13 17.6 63.7 50 7.2 44.9
07:25 1021 30.15 851 25.13 18.4 65.1 48 7.4 45.2
07:30 1021 30.15 850 25.1 18.2 64.7 50 7.6 45.7
07:35 1021 30.15 850 25.1 18.2 64.8 50 7.8 46
07:40 1021 30.15 850 25.1 18.2 64.8 49 7.3 45.2
07:45 1021 30.15 851 25.13 18.8 65.8 46 7.1 44.8
07:50 1021 30.15 851 25.13 19.2 66.5 44 6.8 44.2
07:55 1021 30.15 851 25.13 19.1 66.4 45 7.1 44.9
08:00 1021 30.15 850 25.1 19.3 66.7 45 7.3 45.1
08:05 1021 30.15 850 25.1 19.8 67.6 45 7.7 45.8
08:10 1021 30.15 850 25.1 20.1 68.2 42 6.8 44.2
08:15 1021 30.15 850 25.1 20.3 68.5 42 7.1 44.7
08:20 1021 30.15 850 25.1 20.6 69.1 39 6.2 43.1
08:25 1021 30.15 850 25.1 21.1 69.9 38 6.5 43.8
08:30 1021 30.15 850 25.1 21.8 71.2 35 5.7 42.2
08:35 1021 30.15 850 25.1 21.9 71.4 35 5.7 42.3
08:40 1021 30.15 850 25.1 21.6 71 35 5.8 42.5
08:45 1021 30.15 850 25.1 22.3 72.1 33 5.5 41.9
08:50 1021 30.15 850 25.1 22.7 72.9 32 5.5 41.9
08:55 1021 30.15 850 25.1 22.8 73 34 6.3 43.3
09:00 1021 30.15 850 25.1 22.4 72.3 34 6 42.8
09:05 1021 30.15 850 25.1 23.1 73.6 32 5.6 42
09:10 1021 30.15 850 25.1 23.8 74.8 33 6.8 44.2
09:15 1021 30.15 850 25.1 22.8 73 36 7 44.5
09:20 1021 30.15 850 25.1 23.3 73.9 34 6.7 44
09:25 1021 30.15 850 25.1 24.1 75.4 34 7.6 45.6
09:30 1021 30.15 850 25.1 24.7 76.5 31 6.7 44.1
09:35 1021 30.15 850 25.1 24.8 76.6 31 6.6 43.9
09:40 1021 30.15 850 25.1 24 75.2 32 6.4 43.6
09:45 1021 30.15 850 25.1 24.3 75.7 32 6.7 44.1
09:50 1021 30.15 850 25.1 23.4 74.2 33 6.6 43.8
09:55 1021 30.15 850 25.1 23.9 75 32 6.4 43.5
10:00 1021 30.15 850 25.1 24 75.1 31 6.2 43.2
10:05 1021 30.15 850 25.1 24.1 75.5 29 5.4 41.8
10:10 1021 30.15 850 25.1 24.5 76 30 5.9 42.7
10:15 1020 30.12 850 25.1 24.7 76.4 28 5.4 41.7
10:20 1020 30.12 850 25.1 24.8 76.7 25 4 39.2
10:25 1020 30.12 850 25.1 26 78.9 24 4.4 39.9
10:30 1020 30.12 850 25.1 26.2 79.1 26 5.2 41.4
10:35 1020 30.12 849 25.07 25.9 78.5 24 3.9 39
10:40 1020 30.12 849 25.07 26.2 79.1 24 4.2 39.5
10:45 1020 30.12 849 25.07 26.8 80.2 23 4.3 39.8
10:50 1020 30.12 849 25.07 26.6 79.8 23 4.1 39.4
10:55 1020 30.12 849 25.07 26.1 79 24 4.1 39.4
11:00 1020 30.12 849 25.07 26.2 79.2 24 4.2 39.5
11:05 1020 30.12 849 25.07 27.1 80.8 22 3.7 38.6
11:10 1020 30.12 849 25.07 27.6 81.6 20 3 37.4
11:15 1020 30.12 849 25.07 27 80.6 22 3.7 38.7
11:20 1020 30.12 849 25.07 27.3 81.1 21 3.5 38.4
11:25 1020 30.12 849 25.07 27.8 82 20 3.3 37.9
11:30 1020 30.12 849 25.07 28.2 82.7 21 3.9 39
11:35 1020 30.12 849 25.07 27.8 82 18 2 35.5
11:40 1020 30.12 849 25.07 28.6 83.5 18 2.4 36.3
11:45 1020 30.12 849 25.07 28.7 83.7 18 2.3 36.2
11:50 1020 30.12 849 25.07 27.9 82.1 18 1.4 34.5
11:55 1020 30.12 849 25.07 27.3 81.1 20 2.5 36.4
12:00 1020 30.12 849 25.07 27.1 80.7 20 2.3 36.1
12:05 1020 30.12 849 25.07 26.6 79.9 22 3.3 38
12:10 1020 30.12 849 25.07 27 80.7 20 2.4 36.4
12:15 1020 30.12 849 25.07 27 80.5 16 -1.1 30
12:20 1019 30.09 849 25.07 27.5 81.5 15 -0.8 30.6
12:25 1019 30.09 849 25.07 27.4 81.3 19 2.4 36.2
12:30 1019 30.09 848 25.04 26.9 80.4 16 -0.8 30.6
12:35 1019 30.09 848 25.04 27.1 80.8 15 -1.7 29
12:40 1019 30.09 848 25.04 26.7 80.1 17 -0.4 31.3
12:45 1019 30.09 848 25.04 26.5 79.7 17 0.1 32.1
12:50 1019 30.09 848 25.04 27.4 81.4 15 -0.8 30.5
12:55 1019 30.09 848 25.04 28.2 82.8 15 -0.3 31.5
13:00 1019 30.09 848 25.04 27.7 81.9 15 -0.6 30.8
13:05 1019 30.09 848 25.04 26.6 79.8 15 -1.7 28.9
13:10 1019 30.09 848 25.04 26.5 79.7 17 -0.6 31
13:15 1019 30.09 848 25.04 26.7 80.1 17 -0.1 31.9
13:20 1019 30.09 848 25.04 26.8 80.3 15 -1.4 29.6
13:25 1019 30.09 848 25.04 26.4 79.5 16 -1 30.1
13:30 1019 30.09 848 25.04 26.3 79.4 15 -1.8 28.7
13:35 1019 30.09 848 25.04 26.3 79.4 16 -0.9 30.4
13:40 1018 30.06 848 25.04 26.6 80 17 -0.4 31.4
13:45 1018 30.06 848 25.04 27.2 80.9 16 -0.8 30.5
13:50 1018 30.06 848 25.04 26.8 80.3 17 0.2 32.3
13:55 1018 30.06 848 25.04 26.7 80.1 17 0 32
14:00 1018 30.06 848 25.04 27.4 81.2 15 -1.1 29.9
14:05 1018 30.06 848 25.04 27.9 82.3 15 -1.2 29.8
14:10 1018 30.06 848 25.04 28 82.3 15 -1 30.2
14:15 1018 30.06 847 25.01 28.3 82.9 15 -0.7 30.7
14:20 1018 30.06 848 25.04 27.7 81.8 15 -0.8 30.6
14:25 1018 30.06 847 25.01 27 80.6 17 -0 31.9
14:30 1018 30.06 847 25.01 27.7 81.8 15 -0.6 30.9
14:35 1018 30.06 847 25.01 27.8 82 15 -0.8 30.5
14:40 1018 30.06 847 25.01 27.6 81.7 16 -0.5 31
14:45 1018 30.06 847 25.01 27.7 81.8 15 -0.6 31
14:50 1018 30.06 847 25.01 26.9 80.4 18 0.6 33
14:55 1018 30.06 847 25.01 26.6 79.8 19 1.2 34.1
15:00 1018 30.06 847 25.01 24.9 76.8 26 4.2 39.6
15:05 1018 30.06 847 25.01 23.5 74.2 26 3.2 37.7
15:10 1018 30.06 847 25.01 23.1 73.6 27 3.1 37.7
15:15 1018 30.06 848 25.04 23.1 73.5 27 3.5 38.3
15:20 1018 30.06 848 25.04 22.8 73 27 2.9 37.2
15:25 1018 30.06 847 25.01 23.2 73.7 22 0.4 32.7
15:30 1018 30.06 847 25.01 23.9 75 23 1.7 35.1
15:35 1018 30.06 847 25.01 23.9 75 25 3 37.4
15:40 1018 30.06 847 25.01 23.9 75.1 26 3.7 38.7
15:45 1018 30.06 847 25.01 24.2 75.5 25 3.3 37.9
15:50 1018 30.06 847 25.01 24.3 75.7 25 3.5 38.2
15:55 1018 30.06 847 25.01 23.8 74.9 28 4.3 39.7
16:00 1018 30.06 847 25.01 24.2 75.6 27 4.4 39.9
16:05 1018 30.06 847 25.01 24.3 75.7 26 3.8 38.9
16:10 1018 30.06 847 25.01 24 75.1 27 3.8 38.9
16:15 1018 30.06 847 25.01 24.1 75.4 26 3.7 38.6
16:20 1018 30.06 847 25.01 24.3 75.8 26 4.1 39.3
16:25 1018 30.06 847 25.01 24.5 76.1 26 3.9 39.1
16:30 1018 30.06 847 25.01 24.8 76.7 26 4.3 39.7
16:35 1018 30.06 847 25.01 25.2 77.3 24 3.3 38
16:40 1017 30.03 847 25.01 25 76.9 23 2.7 36.9
16:45 1017 30.03 847 25.01 25.3 77.6 25 4.3 39.8
16:50 1017 30.03 846 24.98 25.5 77.8 24 3.6 38.4
16:55 1017 30.03 846 24.98 25.6 78.1 22 2.6 36.6
17:00 1017 30.03 846 24.98 25.5 77.8 23 3.4 38
17:05 1017 30.03 846 24.98 25.3 77.6 23 2.9 37.3
17:10 1017 30.03 846 24.98 25.8 78.4 22 2.7 36.8
17:15 1017 30.03 846 24.98 26.3 79.3 22 2.9 37.2
17:20 1017 30.03 846 24.98 26 78.9 22 3.2 37.8
17:25 1017 30.03 846 24.98 25.9 78.6 22 3.1 37.6
17:30 1017 30.03 846 24.98 26 78.7 24 4 39.3
17:35 1017 30.03 846 24.98 25.8 78.4 25 4.7 40.5
17:40 1017 30.03 846 24.98 25.8 78.5 25 4.4 39.9
17:45 1017 30.03 846 24.98 25.8 78.4 25 4.6 40.2
17:50 1017 30.03 846 24.98 25.7 78.3 25 4.4 39.9
17:55 1017 30.03 846 24.98 25.8 78.4 24 4.2 39.5
18:00 1016 30 846 24.98 25.4 77.8 25 4.1 39.3
18:05 1017 30.03 846 24.98 25.3 77.5 24 3.6 38.5
18:10 1017 30.03 846 24.98 25.2 77.4 27 5.1 41.1
18:15 1017 30.03 846 24.98 25.2 77.4 26 4.5 40
18:20 1017 30.03 846 24.98 25.2 77.4 26 4.5 40.1
18:25 1017 30.03 846 24.98 25.1 77.1 26 4.7 40.5
18:30 1017 30.03 846 24.98 25 77 26 4.2 39.5
18:35 1017 30.03 846 24.98 24.8 76.7 27 4.6 40.3
18:40 1017 30.03 846 24.98 24.4 76 27 4.4 40
18:45 1017 30.03 846 24.98 24.1 75.3 28 4.6 40.3
18:50 1016 30 846 24.98 24 75.1 28 4.5 40
18:55 1016 30 846 24.98 23.6 74.5 28 4.3 39.7
19:00 1016 30 846 24.98 23.5 74.4 29 4.8 40.7
19:05 1017 30.03 846 24.98 23.4 74.1 30 4.9 40.8
19:10 1017 30.03 846 24.98 23.2 73.8 30 5 41
19:15 1017 30.03 846 24.98 23.2 73.7 31 5.4 41.7
19:20 1017 30.03 846 24.98 22.9 73.3 32 5.5 41.9
19:25 1017 30.03 846 24.98 23 73.3 31 5 41
19:30 1017 30.03 846 24.98 22.9 73.2 32 5.7 42.2
19:35 1017 30.03 846 24.98 22.8 73.1 32 5.5 41.9
19:40 1017 30.03 846 24.98 22.9 73.1 32 5.7 42.3
19:45 1017 30.03 846 24.98 22.8 73.1 33 5.8 42.4
19:50 1017 30.03 846 24.98 22.7 72.8 32 5.2 41.4
19:55 1017 30.03 846 24.98 22.7 72.8 32 5.1 41.2
20:00 1017 30.03 846 24.98 22.4 72.4 33 5.8 42.4
20:05 1017 30.03 846 24.98 22.3 72.2 31 4.6 40.2
20:10 1017 30.03 846 24.98 22.4 72.3 33 5.4 41.8
20:15 1017 30.03 846 24.98 22.2 71.9 33 5.5 41.8
20:20 1017 30.03 846 24.98 21.7 71.1 38 7 44.7
20:25 1017 30.03 846 24.98 21.2 70.2 40 7.2 45
20:30 1017 30.03 846 24.98 20.9 69.6 45 8.6 47.5
20:35 1017 30.03 846 24.98 20.4 68.8 43 7.5 45.5
20:40 1017 30.03 846 24.98 20.5 68.8 46 8.6 47.5
20:45 1017 30.03 846 24.98 20.3 68.5 48 9.2 48.5
20:50 1017 30.03 846 24.98 20.3 68.6 47 8.9 48
20:55 1017 30.03 846 24.98 20.2 68.3 49 9.1 48.4
21:00 1017 30.03 846 24.98 19.9 67.8 43 7 44.6
21:05 1017 30.03 846 24.98 19.8 67.6 49 9 48.2
21:10 1017 30.03 846 24.98 19.4 66.9 49 8.5 47.3
21:15 1017 30.03 846 24.98 19.3 66.8 48 8.2 46.8
21:20 1017 30.03 846 24.98 19 66.2 51 8.7 47.7
21:25 1017 30.03 846 24.98 19 66.1 49 8.1 46.6
21:30 1017 30.03 846 24.98 19.1 66.3 49 8.1 46.7
21:35 1017 30.03 846 24.98 19 66.2 46 7.4 45.3
21:40 1017 30.03 846 24.98 18.9 66 50 8.5 47.2
21:45 1017 30.03 846 24.98 18.8 65.9 48 7.6 45.8
21:50 1017 30.03 846 24.98 18.5 65.4 49 7.7 45.8
21:55 1017 30.03 846 24.98 18.3 65 50 8 46.3
22:00 1017 30.03 846 24.98 18.1 64.5 50 7.5 45.6
22:05 1017 30.03 846 24.98 17.9 64.2 50 7.4 45.4
22:10 1017 30.03 846 24.98 17.7 63.9 49 7 44.6
22:15 1017 30.03 846 24.98 17.9 64.1 45 6 42.9
22:20 1017 30.03 846 24.98 18.2 64.8 45 6.3 43.4
22:25 1017 30.03 846 24.98 18.4 65 45 6.3 43.4
22:30 1017 30.03 846 24.98 18.3 64.9 47 6.9 44.4
22:35 1017 30.03 846 24.98 17.9 64.1 46 6.3 43.3
22:40 1017 30.03 846 24.98 17.8 64.1 46 6.2 43.1
22:45 1017 30.03 846 24.98 17.8 64 44 5.6 42
22:50 1017 30.03 846 24.98 18.1 64.5 42 5 41
22:55 1016 30 846 24.98 18.4 65.1 41 4.9 40.9
23:00 1016 30 846 24.98 18.4 65.1 42 5.3 41.5
23:05 1016 30 846 24.98 17.9 64.1 45 5.9 42.5
23:10 1016 30 846 24.98 17.1 62.9 46 5.7 42.2
23:15 1016 30 846 24.98 16.9 62.4 46 5.2 41.4
23:20 1016 30 846 24.98 16.9 62.5 45 5 41
23:25 1016 30 846 24.98 16.8 62.2 46 5.2 41.4
23:30 1017 30.03 846 24.98 16.7 62 47 5.4 41.7
23:35 1017 30.03 846 24.98 16.7 62.1 46 5.3 41.5
23:40 1017 30.03 846 24.98 16.9 62.3 45 5 41
23:45 1017 30.03 846 24.98 17 62.6 46 5.3 41.5
23:50 1017 30.03 846 24.98 16.9 62.3 46 5.2 41.4
23:55 1017 30.03 846 24.98 16.8 62.2 48 5.8 42.4
24:00 1017 30.03 846 24.98 16.5 61.8 48 5.7 42.2